sensor_id;sensor_type;location;lat;lon;timestamp;P1;durP1;ratioP1;P2;durP2;ratioP2
76123;SDS011;65173;48.066;20.976;2023-05-29T00:01:01;1.60;;;1.13;;
76123;SDS011;65173;48.066;20.976;2023-05-29T00:04:04;3.13;;;1.25;;
76123;SDS011;65173;48.066;20.976;2023-05-29T00:07:07;2.20;;;1.10;;
76123;SDS011;65173;48.066;20.976;2023-05-29T00:10:10;2.60;;;1.20;;
76123;SDS011;65173;48.066;20.976;2023-05-29T00:13:14;2.72;;;1.00;;
76123;SDS011;65173;48.066;20.976;2023-05-29T00:16:17;2.22;;;1.30;;
76123;SDS011;65173;48.066;20.976;2023-05-29T00:19:20;2.92;;;1.38;;
76123;SDS011;65173;48.066;20.976;2023-05-29T00:22:23;2.95;;;1.10;;
76123;SDS011;65173;48.066;20.976;2023-05-29T00:25:26;3.67;;;1.15;;
76123;SDS011;65173;48.066;20.976;2023-05-29T00:28:28;2.08;;;0.90;;
76123;SDS011;65173;48.066;20.976;2023-05-29T00:31:31;1.90;;;1.10;;
76123;SDS011;65173;48.066;20.976;2023-05-29T00:34:34;1.25;;;0.55;;
76123;SDS011;65173;48.066;20.976;2023-05-29T00:37:37;4.28;;;1.77;;
76123;SDS011;65173;48.066;20.976;2023-05-29T00:40:40;2.97;;;1.37;;
76123;SDS011;65173;48.066;20.976;2023-05-29T00:43:43;1.95;;;1.00;;
76123;SDS011;65173;48.066;20.976;2023-05-29T00:46:46;2.45;;;1.48;;
76123;SDS011;65173;48.066;20.976;2023-05-29T00:49:49;1.70;;;0.93;;
76123;SDS011;65173;48.066;20.976;2023-05-29T00:52:54;2.20;;;1.30;;
76123;SDS011;65173;48.066;20.976;2023-05-29T00:55:57;2.95;;;1.27;;
76123;SDS011;65173;48.066;20.976;2023-05-29T00:59:01;2.33;;;1.55;;
76123;SDS011;65173;48.066;20.976;2023-05-29T01:02:05;4.63;;;1.50;;
76123;SDS011;65173;48.066;20.976;2023-05-29T01:05:09;1.60;;;1.38;;
76123;SDS011;65173;48.066;20.976;2023-05-29T01:08:14;2.10;;;1.33;;
76123;SDS011;65173;48.066;20.976;2023-05-29T01:21:27;1.98;;;0.95;;
76123;SDS011;65173;48.066;20.976;2023-05-29T01:24:41;2.97;;;1.05;;
76123;SDS011;65173;48.066;20.976;2023-05-29T01:27:53;4.47;;;1.10;;
76123;SDS011;65173;48.066;20.976;2023-05-29T01:30:57;3.70;;;1.05;;
76123;SDS011;65173;48.066;20.976;2023-05-29T01:34:04;3.17;;;0.97;;
76123;SDS011;65173;48.066;20.976;2023-05-29T01:37:06;3.58;;;1.50;;
76123;SDS011;65173;48.066;20.976;2023-05-29T01:40:09;3.72;;;1.10;;
76123;SDS011;65173;48.066;20.976;2023-05-29T01:43:12;4.20;;;1.33;;
76123;SDS011;65173;48.066;20.976;2023-05-29T01:46:16;2.65;;;1.48;;
76123;SDS011;65173;48.066;20.976;2023-05-29T01:49:20;2.28;;;1.23;;
76123;SDS011;65173;48.066;20.976;2023-05-29T01:52:27;2.58;;;1.30;;
76123;SDS011;65173;48.066;20.976;2023-05-29T01:55:29;2.58;;;1.38;;
76123;SDS011;65173;48.066;20.976;2023-05-29T01:58:32;2.67;;;1.40;;
76123;SDS011;65173;48.066;20.976;2023-05-29T02:01:38;2.67;;;1.77;;
76123;SDS011;65173;48.066;20.976;2023-05-29T02:04:41;1.57;;;1.03;;
76123;SDS011;65173;48.066;20.976;2023-05-29T02:07:44;2.95;;;1.30;;
76123;SDS011;65173;48.066;20.976;2023-05-29T02:10:47;2.45;;;1.60;;
76123;SDS011;65173;48.066;20.976;2023-05-29T02:13:51;1.97;;;1.50;;
76123;SDS011;65173;48.066;20.976;2023-05-29T02:16:54;1.98;;;1.35;;
76123;SDS011;65173;48.066;20.976;2023-05-29T02:19:59;1.38;;;1.27;;
76123;SDS011;65173;48.066;20.976;2023-05-29T02:23:02;1.65;;;0.95;;
76123;SDS011;65173;48.066;20.976;2023-05-29T02:26:05;2.83;;;1.20;;
76123;SDS011;65173;48.066;20.976;2023-05-29T02:29:08;2.40;;;1.23;;
76123;SDS011;65173;48.066;20.976;2023-05-29T02:32:10;2.45;;;0.95;;
76123;SDS011;65173;48.066;20.976;2023-05-29T02:35:14;3.20;;;1.33;;
76123;SDS011;65173;48.066;20.976;2023-05-29T02:38:17;3.42;;;1.42;;
76123;SDS011;65173;48.066;20.976;2023-05-29T02:41:20;3.55;;;1.40;;
76123;SDS011;65173;48.066;20.976;2023-05-29T02:44:25;1.47;;;1.00;;
76123;SDS011;65173;48.066;20.976;2023-05-29T02:47:28;4.72;;;1.70;;
76123;SDS011;65173;48.066;20.976;2023-05-29T02:50:31;3.20;;;1.27;;
76123;SDS011;65173;48.066;20.976;2023-05-29T02:53:34;2.33;;;1.23;;
76123;SDS011;65173;48.066;20.976;2023-05-29T02:56:37;1.98;;;1.00;;
76123;SDS011;65173;48.066;20.976;2023-05-29T02:59:40;4.13;;;1.30;;
76123;SDS011;65173;48.066;20.976;2023-05-29T03:02:42;1.33;;;0.82;;
76123;SDS011;65173;48.066;20.976;2023-05-29T03:05:47;2.37;;;1.07;;
76123;SDS011;65173;48.066;20.976;2023-05-29T03:08:50;2.42;;;1.05;;
76123;SDS011;65173;48.066;20.976;2023-05-29T03:11:53;2.40;;;1.40;;
76123;SDS011;65173;48.066;20.976;2023-05-29T03:14:56;2.60;;;1.10;;
76123;SDS011;65173;48.066;20.976;2023-05-29T03:18:00;1.77;;;1.10;;
76123;SDS011;65173;48.066;20.976;2023-05-29T03:21:05;4.95;;;1.38;;
76123;SDS011;65173;48.066;20.976;2023-05-29T03:24:09;4.72;;;1.58;;
76123;SDS011;65173;48.066;20.976;2023-05-29T03:27:13;2.65;;;1.60;;
76123;SDS011;65173;48.066;20.976;2023-05-29T03:30:18;3.28;;;1.48;;
76123;SDS011;65173;48.066;20.976;2023-05-29T03:33:23;3.50;;;1.38;;
76123;SDS011;65173;48.066;20.976;2023-05-29T03:36:53;1.97;;;1.30;;
76123;SDS011;65173;48.066;20.976;2023-05-29T03:39:56;2.83;;;1.60;;
76123;SDS011;65173;48.066;20.976;2023-05-29T03:42:59;2.72;;;1.00;;
76123;SDS011;65173;48.066;20.976;2023-05-29T03:46:02;1.90;;;1.60;;
76123;SDS011;65173;48.066;20.976;2023-05-29T03:49:06;5.30;;;1.13;;
76123;SDS011;65173;48.066;20.976;2023-05-29T03:52:10;2.90;;;1.27;;
76123;SDS011;65173;48.066;20.976;2023-05-29T03:55:13;2.97;;;1.55;;
76123;SDS011;65173;48.066;20.976;2023-05-29T03:58:17;1.92;;;0.98;;
76123;SDS011;65173;48.066;20.976;2023-05-29T04:01:20;4.20;;;1.27;;
76123;SDS011;65173;48.066;20.976;2023-05-29T04:04:23;5.30;;;1.08;;
76123;SDS011;65173;48.066;20.976;2023-05-29T04:07:26;3.27;;;1.17;;
76123;SDS011;65173;48.066;20.976;2023-05-29T04:10:29;3.17;;;1.23;;
76123;SDS011;65173;48.066;20.976;2023-05-29T04:13:31;3.17;;;1.00;;
76123;SDS011;65173;48.066;20.976;2023-05-29T04:16:34;2.07;;;1.23;;
76123;SDS011;65173;48.066;20.976;2023-05-29T04:19:37;2.92;;;1.27;;
76123;SDS011;65173;48.066;20.976;2023-05-29T04:22:40;2.25;;;1.13;;
76123;SDS011;65173;48.066;20.976;2023-05-29T04:25:43;3.00;;;1.75;;
76123;SDS011;65173;48.066;20.976;2023-05-29T04:28:49;2.28;;;1.20;;
76123;SDS011;65173;48.066;20.976;2023-05-29T04:31:54;4.85;;;1.60;;
76123;SDS011;65173;48.066;20.976;2023-05-29T04:34:57;2.05;;;1.40;;
76123;SDS011;65173;48.066;20.976;2023-05-29T04:38:05;4.57;;;1.77;;
76123;SDS011;65173;48.066;20.976;2023-05-29T04:41:08;4.03;;;1.30;;
76123;SDS011;65173;48.066;20.976;2023-05-29T04:44:13;3.00;;;1.17;;
76123;SDS011;65173;48.066;20.976;2023-05-29T04:47:20;2.17;;;1.07;;
76123;SDS011;65173;48.066;20.976;2023-05-29T04:50:24;2.20;;;1.38;;
76123;SDS011;65173;48.066;20.976;2023-05-29T04:53:29;2.85;;;1.20;;
76123;SDS011;65173;48.066;20.976;2023-05-29T04:56:33;2.42;;;1.35;;
76123;SDS011;65173;48.066;20.976;2023-05-29T04:59:36;1.63;;;1.17;;
76123;SDS011;65173;48.066;20.976;2023-05-29T05:06:02;2.83;;;1.20;;
76123;SDS011;65173;48.066;20.976;2023-05-29T05:09:07;2.17;;;1.13;;
76123;SDS011;65173;48.066;20.976;2023-05-29T05:12:30;2.10;;;1.33;;
76123;SDS011;65173;48.066;20.976;2023-05-29T05:15:34;3.90;;;1.20;;
76123;SDS011;65173;48.066;20.976;2023-05-29T05:18:38;3.03;;;2.03;;
76123;SDS011;65173;48.066;20.976;2023-05-29T05:21:42;1.70;;;1.27;;
76123;SDS011;65173;48.066;20.976;2023-05-29T05:24:46;3.42;;;1.13;;
76123;SDS011;65173;48.066;20.976;2023-05-29T05:27:49;2.92;;;1.38;;
76123;SDS011;65173;48.066;20.976;2023-05-29T05:30:54;1.90;;;1.05;;
76123;SDS011;65173;48.066;20.976;2023-05-29T05:33:58;1.95;;;1.42;;
76123;SDS011;65173;48.066;20.976;2023-05-29T05:37:01;2.35;;;1.15;;
76123;SDS011;65173;48.066;20.976;2023-05-29T05:40:05;1.73;;;1.40;;
76123;SDS011;65173;48.066;20.976;2023-05-29T05:43:22;2.28;;;1.40;;
76123;SDS011;65173;48.066;20.976;2023-05-29T05:46:37;1.95;;;1.40;;
76123;SDS011;65173;48.066;20.976;2023-05-29T05:49:40;2.60;;;1.53;;
76123;SDS011;65173;48.066;20.976;2023-05-29T05:52:42;2.80;;;1.48;;
76123;SDS011;65173;48.066;20.976;2023-05-29T05:55:45;3.47;;;1.92;;
76123;SDS011;65173;48.066;20.976;2023-05-29T05:58:48;2.60;;;1.70;;
76123;SDS011;65173;48.066;20.976;2023-05-29T06:01:54;4.53;;;1.30;;
76123;SDS011;65173;48.066;20.976;2023-05-29T06:04:58;2.88;;;1.58;;
76123;SDS011;65173;48.066;20.976;2023-05-29T06:08:02;4.10;;;1.75;;
76123;SDS011;65173;48.066;20.976;2023-05-29T06:11:04;2.87;;;1.50;;
76123;SDS011;65173;48.066;20.976;2023-05-29T06:14:11;2.28;;;1.70;;
76123;SDS011;65173;48.066;20.976;2023-05-29T06:17:13;3.50;;;1.75;;
76123;SDS011;65173;48.066;20.976;2023-05-29T06:20:17;7.03;;;1.67;;
76123;SDS011;65173;48.066;20.976;2023-05-29T06:23:19;4.75;;;1.73;;
76123;SDS011;65173;48.066;20.976;2023-05-29T06:26:24;4.85;;;1.73;;
76123;SDS011;65173;48.066;20.976;2023-05-29T06:29:28;3.33;;;1.85;;
76123;SDS011;65173;48.066;20.976;2023-05-29T06:32:31;3.03;;;1.67;;
76123;SDS011;65173;48.066;20.976;2023-05-29T06:35:35;2.15;;;1.85;;
76123;SDS011;65173;48.066;20.976;2023-05-29T06:38:38;2.95;;;2.10;;
76123;SDS011;65173;48.066;20.976;2023-05-29T06:41:42;3.27;;;1.20;;
76123;SDS011;65173;48.066;20.976;2023-05-29T06:44:51;1.88;;;1.30;;
76123;SDS011;65173;48.066;20.976;2023-05-29T06:47:53;3.47;;;1.50;;
76123;SDS011;65173;48.066;20.976;2023-05-29T06:50:57;3.13;;;1.57;;
76123;SDS011;65173;48.066;20.976;2023-05-29T06:54:15;1.83;;;1.38;;
76123;SDS011;65173;48.066;20.976;2023-05-29T06:57:18;2.78;;;1.70;;
76123;SDS011;65173;48.066;20.976;2023-05-29T07:00:21;2.13;;;1.75;;
76123;SDS011;65173;48.066;20.976;2023-05-29T07:03:53;3.58;;;1.85;;
76123;SDS011;65173;48.066;20.976;2023-05-29T07:06:56;3.95;;;1.90;;
76123;SDS011;65173;48.066;20.976;2023-05-29T07:09:59;3.10;;;1.60;;
76123;SDS011;65173;48.066;20.976;2023-05-29T07:13:02;4.50;;;1.90;;
76123;SDS011;65173;48.066;20.976;2023-05-29T07:16:06;2.08;;;1.85;;
76123;SDS011;65173;48.066;20.976;2023-05-29T07:19:29;6.63;;;1.98;;
76123;SDS011;65173;48.066;20.976;2023-05-29T07:22:35;2.67;;;2.13;;
76123;SDS011;65173;48.066;20.976;2023-05-29T07:25:38;3.72;;;2.20;;
76123;SDS011;65173;48.066;20.976;2023-05-29T07:28:40;3.00;;;1.70;;
76123;SDS011;65173;48.066;20.976;2023-05-29T07:31:43;4.30;;;2.30;;
76123;SDS011;65173;48.066;20.976;2023-05-29T07:34:47;2.78;;;2.10;;
76123;SDS011;65173;48.066;20.976;2023-05-29T07:37:52;3.10;;;2.30;;
76123;SDS011;65173;48.066;20.976;2023-05-29T07:40:57;2.50;;;2.28;;
76123;SDS011;65173;48.066;20.976;2023-05-29T07:44:12;2.97;;;2.67;;
76123;SDS011;65173;48.066;20.976;2023-05-29T07:47:15;2.60;;;2.20;;
76123;SDS011;65173;48.066;20.976;2023-05-29T07:50:21;6.68;;;2.08;;
76123;SDS011;65173;48.066;20.976;2023-05-29T07:53:24;2.67;;;1.77;;
76123;SDS011;65173;48.066;20.976;2023-05-29T07:56:27;2.78;;;2.10;;
76123;SDS011;65173;48.066;20.976;2023-05-29T07:59:30;4.32;;;2.58;;
76123;SDS011;65173;48.066;20.976;2023-05-29T08:02:34;4.03;;;2.78;;
76123;SDS011;65173;48.066;20.976;2023-05-29T08:05:57;2.95;;;2.40;;
76123;SDS011;65173;48.066;20.976;2023-05-29T08:09:02;3.08;;;1.90;;
76123;SDS011;65173;48.066;20.976;2023-05-29T08:12:05;2.58;;;2.00;;
76123;SDS011;65173;48.066;20.976;2023-05-29T08:15:08;2.73;;;1.93;;
76123;SDS011;65173;48.066;20.976;2023-05-29T08:18:13;3.60;;;1.95;;
76123;SDS011;65173;48.066;20.976;2023-05-29T08:21:15;4.45;;;2.65;;
76123;SDS011;65173;48.066;20.976;2023-05-29T08:24:18;5.33;;;2.27;;
76123;SDS011;65173;48.066;20.976;2023-05-29T08:27:22;2.70;;;2.15;;
76123;SDS011;65173;48.066;20.976;2023-05-29T08:30:24;3.47;;;1.92;;
76123;SDS011;65173;48.066;20.976;2023-05-29T08:33:27;2.40;;;2.20;;
76123;SDS011;65173;48.066;20.976;2023-05-29T08:36:31;3.42;;;1.98;;
76123;SDS011;65173;48.066;20.976;2023-05-29T08:39:34;3.03;;;2.33;;
76123;SDS011;65173;48.066;20.976;2023-05-29T08:42:44;2.33;;;2.13;;
76123;SDS011;65173;48.066;20.976;2023-05-29T08:45:52;5.10;;;2.13;;
76123;SDS011;65173;48.066;20.976;2023-05-29T08:48:56;3.08;;;2.20;;
76123;SDS011;65173;48.066;20.976;2023-05-29T08:52:09;6.07;;;2.45;;
76123;SDS011;65173;48.066;20.976;2023-05-29T08:55:16;3.43;;;2.67;;
76123;SDS011;65173;48.066;20.976;2023-05-29T08:58:19;6.00;;;2.85;;
76123;SDS011;65173;48.066;20.976;2023-05-29T09:01:28;3.90;;;2.35;;
76123;SDS011;65173;48.066;20.976;2023-05-29T09:04:33;4.05;;;3.38;;
76123;SDS011;65173;48.066;20.976;2023-05-29T09:07:36;5.15;;;2.55;;
76123;SDS011;65173;48.066;20.976;2023-05-29T09:10:43;3.35;;;2.58;;
76123;SDS011;65173;48.066;20.976;2023-05-29T09:13:47;3.15;;;2.80;;
76123;SDS011;65173;48.066;20.976;2023-05-29T09:16:50;4.03;;;2.73;;
76123;SDS011;65173;48.066;20.976;2023-05-29T09:19:53;3.15;;;2.38;;
76123;SDS011;65173;48.066;20.976;2023-05-29T09:22:57;4.32;;;2.58;;
76123;SDS011;65173;48.066;20.976;2023-05-29T09:26:02;2.07;;;1.90;;
76123;SDS011;65173;48.066;20.976;2023-05-29T09:29:05;2.60;;;2.10;;
76123;SDS011;65173;48.066;20.976;2023-05-29T09:32:26;2.78;;;2.58;;
76123;SDS011;65173;48.066;20.976;2023-05-29T09:38:45;2.80;;;2.35;;
76123;SDS011;65173;48.066;20.976;2023-05-29T09:41:54;2.78;;;2.58;;
76123;SDS011;65173;48.066;20.976;2023-05-29T09:44:59;2.53;;;2.33;;
76123;SDS011;65173;48.066;20.976;2023-05-29T09:48:02;4.37;;;2.80;;
76123;SDS011;65173;48.066;20.976;2023-05-29T09:51:05;5.93;;;2.53;;
76123;SDS011;65173;48.066;20.976;2023-05-29T09:54:17;2.45;;;1.70;;
76123;SDS011;65173;48.066;20.976;2023-05-29T09:57:20;2.63;;;2.27;;
76123;SDS011;65173;48.066;20.976;2023-05-29T10:00:25;2.63;;;2.42;;
76123;SDS011;65173;48.066;20.976;2023-05-29T10:03:28;3.03;;;2.75;;
76123;SDS011;65173;48.066;20.976;2023-05-29T10:06:37;4.00;;;3.08;;
76123;SDS011;65173;48.066;20.976;2023-05-29T10:09:44;3.00;;;2.70;;
76123;SDS011;65173;48.066;20.976;2023-05-29T10:12:50;2.97;;;2.63;;
76123;SDS011;65173;48.066;20.976;2023-05-29T10:15:53;4.03;;;3.00;;
76123;SDS011;65173;48.066;20.976;2023-05-29T10:18:57;2.50;;;2.30;;
76123;SDS011;65173;48.066;20.976;2023-05-29T10:22:04;3.90;;;2.60;;
76123;SDS011;65173;48.066;20.976;2023-05-29T10:25:08;4.15;;;2.42;;
76123;SDS011;65173;48.066;20.976;2023-05-29T10:28:13;2.67;;;2.47;;
76123;SDS011;65173;48.066;20.976;2023-05-29T10:31:17;4.15;;;2.90;;
76123;SDS011;65173;48.066;20.976;2023-05-29T10:37:50;3.30;;;2.80;;
76123;SDS011;65173;48.066;20.976;2023-05-29T10:41:25;2.93;;;2.63;;
76123;SDS011;65173;48.066;20.976;2023-05-29T10:47:35;3.22;;;2.90;;
76123;SDS011;65173;48.066;20.976;2023-05-29T10:50:45;3.92;;;2.95;;
76123;SDS011;65173;48.066;20.976;2023-05-29T10:53:48;3.13;;;2.83;;
76123;SDS011;65173;48.066;20.976;2023-05-29T10:56:53;3.80;;;3.17;;
76123;SDS011;65173;48.066;20.976;2023-05-29T10:59:59;3.80;;;2.83;;
76123;SDS011;65173;48.066;20.976;2023-05-29T11:03:08;3.63;;;3.33;;
76123;SDS011;65173;48.066;20.976;2023-05-29T11:06:19;3.40;;;3.10;;
76123;SDS011;65173;48.066;20.976;2023-05-29T11:09:29;2.85;;;2.33;;
76123;SDS011;65173;48.066;20.976;2023-05-29T11:12:41;3.65;;;3.00;;
76123;SDS011;65173;48.066;20.976;2023-05-29T11:19:32;4.53;;;3.10;;
76123;SDS011;65173;48.066;20.976;2023-05-29T11:26:05;3.60;;;2.70;;
76123;SDS011;65173;48.066;20.976;2023-05-29T11:29:09;2.80;;;2.37;;
76123;SDS011;65173;48.066;20.976;2023-05-29T11:32:16;2.95;;;2.70;;
76123;SDS011;65173;48.066;20.976;2023-05-29T11:35:19;3.22;;;2.15;;
76123;SDS011;65173;48.066;20.976;2023-05-29T11:38:25;3.00;;;2.53;;
76123;SDS011;65173;48.066;20.976;2023-05-29T11:41:28;2.47;;;2.17;;
76123;SDS011;65173;48.066;20.976;2023-05-29T11:44:31;4.57;;;3.17;;
76123;SDS011;65173;48.066;20.976;2023-05-29T11:47:49;3.03;;;2.65;;
76123;SDS011;65173;48.066;20.976;2023-05-29T11:51:03;3.88;;;2.70;;
76123;SDS011;65173;48.066;20.976;2023-05-29T11:54:11;3.88;;;3.03;;
76123;SDS011;65173;48.066;20.976;2023-05-29T11:57:17;3.13;;;2.50;;
76123;SDS011;65173;48.066;20.976;2023-05-29T12:00:21;3.00;;;2.63;;
76123;SDS011;65173;48.066;20.976;2023-05-29T12:03:24;2.72;;;2.50;;
76123;SDS011;65173;48.066;20.976;2023-05-29T12:06:30;2.95;;;2.38;;
76123;SDS011;65173;48.066;20.976;2023-05-29T12:09:37;3.40;;;2.97;;
76123;SDS011;65173;48.066;20.976;2023-05-29T12:12:41;3.25;;;2.45;;
76123;SDS011;65173;48.066;20.976;2023-05-29T12:15:44;3.20;;;2.60;;
76123;SDS011;65173;48.066;20.976;2023-05-29T12:18:47;3.25;;;2.58;;
76123;SDS011;65173;48.066;20.976;2023-05-29T12:21:49;3.15;;;2.67;;
76123;SDS011;65173;48.066;20.976;2023-05-29T12:24:52;2.65;;;2.45;;
76123;SDS011;65173;48.066;20.976;2023-05-29T12:27:55;3.30;;;3.00;;
76123;SDS011;65173;48.066;20.976;2023-05-29T12:31:00;3.60;;;3.23;;
76123;SDS011;65173;48.066;20.976;2023-05-29T12:34:10;4.38;;;3.40;;
76123;SDS011;65173;48.066;20.976;2023-05-29T12:37:14;3.53;;;3.13;;
76123;SDS011;65173;48.066;20.976;2023-05-29T12:40:18;3.33;;;2.67;;
76123;SDS011;65173;48.066;20.976;2023-05-29T12:43:24;3.45;;;3.15;;
76123;SDS011;65173;48.066;20.976;2023-05-29T12:46:34;3.65;;;3.00;;
76123;SDS011;65173;48.066;20.976;2023-05-29T12:49:37;3.65;;;3.20;;
76123;SDS011;65173;48.066;20.976;2023-05-29T12:52:41;3.60;;;3.10;;
76123;SDS011;65173;48.066;20.976;2023-05-29T12:55:43;2.70;;;2.50;;
76123;SDS011;65173;48.066;20.976;2023-05-29T12:58:48;3.92;;;3.42;;
76123;SDS011;65173;48.066;20.976;2023-05-29T13:01:52;4.17;;;3.67;;
76123;SDS011;65173;48.066;20.976;2023-05-29T13:04:54;3.15;;;2.60;;
76123;SDS011;65173;48.066;20.976;2023-05-29T13:07:57;3.50;;;3.20;;
76123;SDS011;65173;48.066;20.976;2023-05-29T13:11:00;6.80;;;4.90;;
76123;SDS011;65173;48.066;20.976;2023-05-29T13:14:03;3.00;;;2.70;;
76123;SDS011;65173;48.066;20.976;2023-05-29T13:17:06;3.22;;;2.70;;
76123;SDS011;65173;48.066;20.976;2023-05-29T13:20:09;2.95;;;2.58;;
76123;SDS011;65173;48.066;20.976;2023-05-29T13:23:13;2.92;;;2.63;;
76123;SDS011;65173;48.066;20.976;2023-05-29T13:26:16;4.13;;;2.58;;
76123;SDS011;65173;48.066;20.976;2023-05-29T13:29:19;3.80;;;2.60;;
76123;SDS011;65173;48.066;20.976;2023-05-29T13:32:22;4.07;;;2.97;;
76123;SDS011;65173;48.066;20.976;2023-05-29T13:35:25;3.30;;;2.57;;
76123;SDS011;65173;48.066;20.976;2023-05-29T13:38:28;4.20;;;2.60;;
76123;SDS011;65173;48.066;20.976;2023-05-29T13:41:31;3.95;;;2.30;;
76123;SDS011;65173;48.066;20.976;2023-05-29T13:44:34;3.20;;;2.90;;
76123;SDS011;65173;48.066;20.976;2023-05-29T13:47:37;2.60;;;2.05;;
76123;SDS011;65173;48.066;20.976;2023-05-29T13:50:40;3.33;;;2.88;;
76123;SDS011;65173;48.066;20.976;2023-05-29T13:53:42;5.25;;;2.70;;
76123;SDS011;65173;48.066;20.976;2023-05-29T13:56:45;3.60;;;2.50;;
76123;SDS011;65173;48.066;20.976;2023-05-29T13:59:48;2.78;;;2.42;;
76123;SDS011;65173;48.066;20.976;2023-05-29T14:02:51;3.10;;;2.80;;
76123;SDS011;65173;48.066;20.976;2023-05-29T14:05:54;3.17;;;2.67;;
76123;SDS011;65173;48.066;20.976;2023-05-29T14:08:57;3.13;;;2.60;;
76123;SDS011;65173;48.066;20.976;2023-05-29T14:12:00;3.65;;;2.60;;
76123;SDS011;65173;48.066;20.976;2023-05-29T14:15:04;4.00;;;3.15;;
76123;SDS011;65173;48.066;20.976;2023-05-29T14:18:08;3.10;;;2.67;;
76123;SDS011;65173;48.066;20.976;2023-05-29T14:21:11;3.30;;;2.83;;
76123;SDS011;65173;48.066;20.976;2023-05-29T14:24:14;2.95;;;2.35;;
76123;SDS011;65173;48.066;20.976;2023-05-29T14:27:18;3.00;;;2.70;;
76123;SDS011;65173;48.066;20.976;2023-05-29T14:30:23;3.70;;;3.10;;
76123;SDS011;65173;48.066;20.976;2023-05-29T14:33:26;3.40;;;2.17;;
76123;SDS011;65173;48.066;20.976;2023-05-29T14:36:28;5.15;;;2.60;;
76123;SDS011;65173;48.066;20.976;2023-05-29T14:39:31;3.03;;;2.67;;
76123;SDS011;65173;48.066;20.976;2023-05-29T14:42:34;3.90;;;2.70;;
76123;SDS011;65173;48.066;20.976;2023-05-29T14:45:36;2.60;;;2.40;;
76123;SDS011;65173;48.066;20.976;2023-05-29T14:48:39;3.30;;;2.53;;
76123;SDS011;65173;48.066;20.976;2023-05-29T14:51:41;3.17;;;2.60;;
76123;SDS011;65173;48.066;20.976;2023-05-29T14:54:45;3.45;;;2.33;;
76123;SDS011;65173;48.066;20.976;2023-05-29T14:57:47;4.07;;;2.37;;
76123;SDS011;65173;48.066;20.976;2023-05-29T15:00:50;5.93;;;2.75;;
76123;SDS011;65173;48.066;20.976;2023-05-29T15:03:53;3.15;;;2.50;;
76123;SDS011;65173;48.066;20.976;2023-05-29T15:06:56;5.50;;;3.10;;
76123;SDS011;65173;48.066;20.976;2023-05-29T15:10:07;4.25;;;2.78;;
76123;SDS011;65173;48.066;20.976;2023-05-29T15:13:11;4.75;;;2.85;;
76123;SDS011;65173;48.066;20.976;2023-05-29T15:16:13;3.42;;;2.78;;
76123;SDS011;65173;48.066;20.976;2023-05-29T15:19:16;2.43;;;2.13;;
76123;SDS011;65173;48.066;20.976;2023-05-29T15:22:19;2.55;;;2.35;;
76123;SDS011;65173;48.066;20.976;2023-05-29T15:25:22;4.55;;;3.08;;
76123;SDS011;65173;48.066;20.976;2023-05-29T15:28:25;2.73;;;2.47;;
76123;SDS011;65173;48.066;20.976;2023-05-29T15:31:28;3.47;;;2.30;;
76123;SDS011;65173;48.066;20.976;2023-05-29T15:34:31;2.70;;;2.03;;
76123;SDS011;65173;48.066;20.976;2023-05-29T15:37:36;4.63;;;2.50;;
76123;SDS011;65173;48.066;20.976;2023-05-29T15:40:39;3.65;;;2.60;;
76123;SDS011;65173;48.066;20.976;2023-05-29T15:43:45;4.15;;;3.05;;
76123;SDS011;65173;48.066;20.976;2023-05-29T15:46:47;3.50;;;2.30;;
76123;SDS011;65173;48.066;20.976;2023-05-29T15:49:50;3.30;;;2.40;;
76123;SDS011;65173;48.066;20.976;2023-05-29T15:52:53;4.43;;;2.42;;
76123;SDS011;65173;48.066;20.976;2023-05-29T15:55:57;3.03;;;2.47;;
76123;SDS011;65173;48.066;20.976;2023-05-29T15:59:00;4.33;;;2.87;;
76123;SDS011;65173;48.066;20.976;2023-05-29T16:02:05;6.68;;;2.80;;
76123;SDS011;65173;48.066;20.976;2023-05-29T16:05:07;4.00;;;2.65;;
76123;SDS011;65173;48.066;20.976;2023-05-29T16:08:11;3.35;;;2.55;;
76123;SDS011;65173;48.066;20.976;2023-05-29T16:11:13;4.75;;;2.60;;
76123;SDS011;65173;48.066;20.976;2023-05-29T16:14:16;5.15;;;2.75;;
76123;SDS011;65173;48.066;20.976;2023-05-29T16:17:19;2.95;;;2.65;;
76123;SDS011;65173;48.066;20.976;2023-05-29T16:20:22;3.87;;;2.57;;
76123;SDS011;65173;48.066;20.976;2023-05-29T16:23:26;3.55;;;2.55;;
76123;SDS011;65173;48.066;20.976;2023-05-29T16:26:29;5.30;;;2.50;;
76123;SDS011;65173;48.066;20.976;2023-05-29T16:29:37;4.00;;;2.93;;
76123;SDS011;65173;48.066;20.976;2023-05-29T16:32:40;3.85;;;2.75;;
76123;SDS011;65173;48.066;20.976;2023-05-29T16:35:43;2.45;;;2.20;;
76123;SDS011;65173;48.066;20.976;2023-05-29T16:38:48;4.78;;;2.50;;
76123;SDS011;65173;48.066;20.976;2023-05-29T16:41:52;3.95;;;2.25;;
76123;SDS011;65173;48.066;20.976;2023-05-29T16:44:55;3.80;;;2.30;;
76123;SDS011;65173;48.066;20.976;2023-05-29T16:47:57;3.03;;;2.38;;
76123;SDS011;65173;48.066;20.976;2023-05-29T16:51:00;4.57;;;3.30;;
76123;SDS011;65173;48.066;20.976;2023-05-29T16:54:03;4.68;;;2.97;;
76123;SDS011;65173;48.066;20.976;2023-05-29T16:57:09;4.43;;;3.03;;
76123;SDS011;65173;48.066;20.976;2023-05-29T17:00:12;5.17;;;3.37;;
76123;SDS011;65173;48.066;20.976;2023-05-29T17:03:15;3.78;;;2.67;;
76123;SDS011;65173;48.066;20.976;2023-05-29T17:06:18;3.90;;;2.78;;
76123;SDS011;65173;48.066;20.976;2023-05-29T17:09:20;4.32;;;2.70;;
76123;SDS011;65173;48.066;20.976;2023-05-29T17:12:28;3.55;;;2.40;;
76123;SDS011;65173;48.066;20.976;2023-05-29T17:15:31;5.15;;;2.35;;
76123;SDS011;65173;48.066;20.976;2023-05-29T17:18:34;5.22;;;2.75;;
76123;SDS011;65173;48.066;20.976;2023-05-29T17:21:37;5.57;;;3.10;;
76123;SDS011;65173;48.066;20.976;2023-05-29T17:24:39;5.35;;;2.72;;
76123;SDS011;65173;48.066;20.976;2023-05-29T17:27:42;3.72;;;2.40;;
76123;SDS011;65173;48.066;20.976;2023-05-29T17:30:45;3.03;;;2.20;;
76123;SDS011;65173;48.066;20.976;2023-05-29T17:33:48;5.32;;;2.92;;
76123;SDS011;65173;48.066;20.976;2023-05-29T17:36:51;3.55;;;2.55;;
76123;SDS011;65173;48.066;20.976;2023-05-29T17:39:53;4.72;;;2.70;;
76123;SDS011;65173;48.066;20.976;2023-05-29T17:42:56;3.15;;;2.53;;
76123;SDS011;65173;48.066;20.976;2023-05-29T17:45:59;3.70;;;2.38;;
76123;SDS011;65173;48.066;20.976;2023-05-29T17:49:02;4.45;;;2.42;;
76123;SDS011;65173;48.066;20.976;2023-05-29T17:52:05;6.20;;;2.43;;
76123;SDS011;65173;48.066;20.976;2023-05-29T17:55:10;3.67;;;2.60;;
76123;SDS011;65173;48.066;20.976;2023-05-29T17:58:13;4.72;;;2.97;;
76123;SDS011;65173;48.066;20.976;2023-05-29T18:01:16;3.20;;;2.10;;
76123;SDS011;65173;48.066;20.976;2023-05-29T18:04:19;2.63;;;2.13;;
76123;SDS011;65173;48.066;20.976;2023-05-29T18:07:23;2.88;;;2.10;;
76123;SDS011;65173;48.066;20.976;2023-05-29T18:10:26;7.63;;;2.72;;
76123;SDS011;65173;48.066;20.976;2023-05-29T18:13:30;3.80;;;2.55;;
76123;SDS011;65173;48.066;20.976;2023-05-29T18:16:36;2.78;;;2.35;;
76123;SDS011;65173;48.066;20.976;2023-05-29T18:19:40;2.85;;;2.40;;
76123;SDS011;65173;48.066;20.976;2023-05-29T18:22:43;4.37;;;2.33;;
76123;SDS011;65173;48.066;20.976;2023-05-29T18:25:46;2.63;;;2.42;;
76123;SDS011;65173;48.066;20.976;2023-05-29T18:28:49;4.78;;;2.20;;
76123;SDS011;65173;48.066;20.976;2023-05-29T18:31:53;5.87;;;2.53;;
76123;SDS011;65173;48.066;20.976;2023-05-29T18:34:56;3.10;;;2.63;;
76123;SDS011;65173;48.066;20.976;2023-05-29T18:37:58;4.05;;;2.10;;
76123;SDS011;65173;48.066;20.976;2023-05-29T18:41:01;4.20;;;2.55;;
76123;SDS011;65173;48.066;20.976;2023-05-29T18:44:03;3.13;;;2.42;;